Time;durP1;ratioP1;P1;durP2;ratioP2;P2;SDS_P1;SDS_P2;PMS_P1;PMS_P2;Temp;Humidity;BMP_temperature;BMP_pressure;BME280_temperature;BME280_humidity;BME280_pressure;Samples;Min_cycle;Max_cycle;Signal;HPM_P1;HPM_P2
2022/09/11 00:01:35;;;;;;;18.38;13.25;;;14.70;99.90;;;;;;6130662;23;20008;-80
2022/09/11 00:04:03;;;;;;;16.88;14.30;;;14.70;99.90;;;;;;6104784;23;20012;-80
2022/09/11 00:06:30;;;;;;;14.85;13.25;;;14.60;99.90;;;;;;6104585;23;20006;-80
2022/09/11 00:08:59;;;;;;;14.95;13.00;;;14.70;99.90;;;;;;6076444;23;20007;-79
2022/09/11 00:11:28;;;;;;;14.02;11.55;;;14.60;99.90;;;;;;6101041;23;20007;-79
2022/09/11 00:13:55;;;;;;;15.38;12.48;;;14.60;99.90;;;;;;6100204;23;20006;-80
2022/09/11 00:16:21;;;;;;;13.07;10.68;;;14.60;99.90;;;;;;6100781;23;20008;-79
2022/09/11 00:18:49;;;;;;;14.32;12.02;;;14.60;99.90;;;;;;6097984;23;20009;-79
2022/09/11 00:21:16;;;;;;;18.42;12.65;;;14.50;99.90;;;;;;6073693;23;20009;-82
2022/09/11 00:23:43;;;;;;;15.25;12.40;;;14.50;99.90;;;;;;6100323;23;20430;-80
2022/09/11 00:26:10;;;;;;;14.05;10.93;;;14.50;99.90;;;;;;6074218;23;20010;-79
2022/09/11 00:28:37;;;;;;;14.23;11.68;;;14.50;99.90;;;;;;6097092;23;20007;-80
2022/09/11 00:31:07;;;;;;;13.07;11.02;;;14.50;99.90;;;;;;6074475;23;20017;-79
2022/09/11 00:33:34;;;;;;;17.45;13.32;;;14.50;99.90;;;;;;6097817;23;20003;-79
2022/09/11 00:36:04;;;;;;;16.02;11.65;;;14.40;99.90;;;;;;6099803;23;20009;-79
2022/09/11 00:38:36;;;;;;;14.30;12.50;;;14.40;99.90;;;;;;6048562;23;20331;-79
2022/09/11 00:41:05;;;;;;;14.15;11.43;;;14.40;99.90;;;;;;6107061;23;19999;-80
2022/09/11 00:43:54;;;;;;;10.82;9.73;;;14.40;99.90;;;;;;6026441;23;20010;-80
2022/09/11 00:46:33;;;;;;;16.40;11.35;;;14.40;99.90;;;;;;6084791;23;20016;-80
2022/09/11 00:49:03;;;;;;;15.25;11.85;;;14.30;99.90;;;;;;6100777;23;20026;-80
2022/09/11 00:51:34;;;;;;;14.38;12.02;;;14.30;99.90;;;;;;6074884;23;20010;-79
2022/09/11 00:54:02;;;;;;;12.82;11.45;;;14.30;99.90;;;;;;6050522;23;20025;-79
2022/09/11 00:56:34;;;;;;;16.05;12.77;;;14.30;99.90;;;;;;6098710;23;20021;-80
2022/09/11 00:59:01;;;;;;;15.77;12.95;;;14.30;99.90;;;;;;6099384;23;20017;-80
2022/09/11 01:01:27;;;;;;;16.73;13.80;;;14.30;99.90;;;;;;6100702;23;20002;-79
2022/09/11 01:03:54;;;;;;;16.10;12.65;;;14.20;99.90;;;;;;6076044;23;20010;-79
2022/09/11 01:06:22;;;;;;;14.27;11.90;;;14.20;99.90;;;;;;6100221;23;20363;-81
2022/09/11 01:08:50;;;;;;;12.93;11.38;;;14.20;99.90;;;;;;6076696;23;20006;-80
2022/09/11 01:11:52;;;;;;;15.20;12.40;;;14.20;99.90;;;;;;6101248;23;20010;-80
2022/09/11 01:14:51;;;;;;;13.18;11.20;;;14.10;99.90;;;;;;6084606;23;20010;-81
2022/09/11 01:17:25;;;;;;;20.13;14.85;;;14.10;99.90;;;;;;6120796;23;20062;-80
2022/09/11 01:20:13;;;;;;;16.67;12.90;;;14.10;99.90;;;;;;6105602;23;20013;-79
2022/09/11 01:23:13;;;;;;;20.05;11.63;;;14.00;99.90;;;;;;6072215;23;20017;-79
2022/09/11 01:25:59;;;;;;;23.48;12.70;;;14.00;99.90;;;;;;6129866;23;20009;-79
2022/09/11 01:28:42;;;;;;;15.25;11.35;;;14.00;99.90;;;;;;6109748;23;20007;-80
2022/09/11 01:31:11;;;;;;;17.63;11.52;;;14.00;99.90;;;;;;6076072;23;20013;-81
2022/09/11 01:33:44;;;;;;;12.80;11.43;;;13.90;99.90;;;;;;6075021;23;20006;-81
2022/09/11 01:36:31;;;;;;;12.68;10.43;;;14.00;99.90;;;;;;6050651;23;20010;-81
2022/09/11 01:39:03;;;;;;;10.10;8.95;;;13.90;99.90;;;;;;6099950;23;20006;-80
2022/09/11 01:41:58;;;;;;;10.95;9.93;;;13.90;99.90;;;;;;6109468;23;20003;-81
2022/09/11 01:44:28;;;;;;;10.65;9.55;;;13.80;99.90;;;;;;6049543;23;20010;-81
2022/09/11 01:46:55;;;;;;;12.98;10.20;;;13.80;99.90;;;;;;6105401;23;20013;-79
2022/09/11 01:49:34;;;;;;;11.13;9.77;;;13.80;99.90;;;;;;6072821;23;20002;-79
2022/09/11 01:52:05;;;;;;;11.50;10.18;;;13.70;99.90;;;;;;6082391;23;20336;-79
2022/09/11 01:54:36;;;;;;;12.82;10.95;;;13.70;99.90;;;;;;6107774;23;20010;-77
2022/09/11 01:57:09;;;;;;;12.50;10.45;;;13.70;99.90;;;;;;6104466;23;20006;-79
2022/09/11 01:59:50;;;;;;;15.18;12.07;;;13.70;99.90;;;;;;6105676;23;20010;-79
2022/09/11 02:02:27;;;;;;;14.38;11.43;;;13.70;99.90;;;;;;6048393;23;20007;-79
2022/09/11 02:05:15;;;;;;;13.75;10.50;;;13.70;99.90;;;;;;6072517;23;20037;-79
2022/09/11 02:07:51;;;;;;;13.80;11.15;;;13.70;99.90;;;;;;6071661;23;20006;-80
2022/09/11 02:10:24;;;;;;;13.75;10.98;;;13.70;99.90;;;;;;6105852;23;20010;-79
2022/09/11 02:13:14;;;;;;;15.90;11.38;;;13.70;99.90;;;;;;6071880;23;20021;-79
2022/09/11 02:15:45;;;;;;;15.50;11.95;;;13.70;99.90;;;;;;6073597;23;20006;-79
2022/09/11 02:18:27;;;;;;;14.52;11.40;;;13.70;99.90;;;;;;6075845;23;20025;-80
2022/09/11 02:20:53;;;;;;;16.95;11.80;;;13.70;99.90;;;;;;6111639;23;19999;-80
2022/09/11 02:23:20;;;;;;;17.90;12.98;;;13.70;99.90;;;;;;6080277;23;20028;-81
2022/09/11 02:25:47;;;;;;;19.02;14.10;;;13.70;99.90;;;;;;6054690;23;20347;-81
2022/09/11 02:28:13;;;;;;;18.42;14.02;;;13.70;99.90;;;;;;6101254;23;20006;-80
2022/09/11 02:30:41;;;;;;;20.60;14.32;;;13.70;99.90;;;;;;6029521;23;20017;-81
2022/09/11 02:33:31;;;;;;;17.13;12.55;;;13.70;99.90;;;;;;6053095;23;20442;-81
2022/09/11 02:36:09;;;;;;;21.65;14.73;;;13.70;99.90;;;;;;6110259;23;20003;-80
2022/09/11 02:38:51;;;;;;;22.02;14.30;;;13.70;99.90;;;;;;6052275;23;20011;-80
2022/09/11 02:41:33;;;;;;;21.05;15.05;;;13.70;99.90;;;;;;6076671;23;20003;-79
2022/09/11 02:44:14;;;;;;;20.73;14.82;;;13.70;99.90;;;;;;6088146;23;20002;-80
2022/09/11 02:46:45;;;;;;;;;;;13.70;99.90;;;;;;6112467;23;20003;-80
2022/09/11 02:49:29;;;;;;;20.80;13.98;;;13.70;99.90;;;;;;6101846;23;20196;-80
2022/09/11 02:52:21;;;;;;;17.30;13.52;;;13.70;99.90;;;;;;6079044;23;20014;-80
2022/09/11 02:55:01;;;;;;;20.85;14.88;;;13.60;99.90;;;;;;6104802;23;20013;-80
2022/09/11 02:57:42;;;;;;;20.55;14.82;;;13.60;99.90;;;;;;6077997;23;20014;-80
2022/09/11 03:00:09;;;;;;;20.30;13.50;;;13.60;99.90;;;;;;6082965;23;20312;-80
2022/09/11 03:02:40;;;;;;;16.25;12.20;;;13.60;99.90;;;;;;6049088;23;20003;-79
2022/09/11 03:05:08;;;;;;;16.08;11.75;;;13.50;99.90;;;;;;6096841;23;20006;-79
2022/09/11 03:07:34;;;;;;;18.92;12.07;;;13.50;99.90;;;;;;6098499;23;20447;-79
2022/09/11 03:10:01;;;;;;;12.13;9.98;;;13.50;99.90;;;;;;6072774;23;20328;-79
2022/09/11 03:12:29;;;;;;;13.55;8.93;;;13.50;99.90;;;;;;6072555;23;20018;-80
2022/09/11 03:14:56;;;;;;;16.75;10.23;;;13.40;99.90;;;;;;6072660;23;20037;-81
2022/09/11 03:17:24;;;;;;;12.48;9.52;;;13.40;99.90;;;;;;6071868;23;20009;-80
2022/09/11 03:19:50;;;;;;;10.63;9.13;;;13.40;99.90;;;;;;6048613;23;20039;-80
2022/09/11 03:22:17;;;;;;;10.32;9.07;;;13.30;99.90;;;;;;6048297;23;20006;-80
2022/09/11 03:24:44;;;;;;;11.60;9.35;;;13.20;99.90;;;;;;6072015;23;20324;-79
2022/09/11 03:27:11;;;;;;;10.60;8.73;;;13.20;99.90;;;;;;6072202;23;20011;-79
2022/09/11 03:29:39;;;;;;;11.48;8.75;;;13.20;99.90;;;;;;6047801;23;20018;-79
2022/09/11 03:32:06;;;;;;;11.75;9.38;;;13.20;99.90;;;;;;6072954;23;20009;-80
2022/09/11 03:34:33;;;;;;;12.95;9.45;;;13.20;99.90;;;;;;6073448;23;20010;-79
2022/09/11 03:36:59;;;;;;;14.98;10.02;;;13.20;99.90;;;;;;6099824;23;19998;-80
2022/09/11 03:39:25;;;;;;;13.05;9.13;;;13.10;99.90;;;;;;6075447;23;20006;-80
2022/09/11 03:41:53;;;;;;;11.82;8.75;;;13.10;99.90;;;;;;6051289;23;20011;-79
2022/09/11 03:44:20;;;;;;;12.20;8.70;;;13.10;99.90;;;;;;6074367;23;20011;-80
2022/09/11 03:46:46;;;;;;;21.15;9.95;;;13.10;99.90;;;;;;6100335;23;20017;-80
2022/09/11 03:49:12;;;;;;;14.10;6.80;;;13.10;99.90;;;;;;6050970;23;20106;-80
2022/09/11 03:51:39;;;;;;;8.73;5.90;;;13.10;99.90;;;;;;6075144;23;20006;-80
2022/09/11 03:54:06;;;;;;;7.38;5.75;;;13.00;99.90;;;;;;6051033;23;20351;-80
2022/09/11 03:56:33;;;;;;;9.98;5.68;;;13.00;99.90;;;;;;6075601;23;20021;-79
2022/09/11 03:58:59;;;;;;;10.38;6.30;;;13.00;99.90;;;;;;6101703;23;20006;-80
2022/09/11 04:01:27;;;;;;;6.20;5.53;;;12.90;99.90;;;;;;6076630;23;19999;-80
2022/09/11 04:03:53;;;;;;;5.47;4.97;;;12.90;99.90;;;;;;6052486;23;20006;-80
2022/09/11 04:06:36;;;;;;;5.72;4.63;;;12.90;99.90;;;;;;6086049;23;20008;-81
2022/09/11 04:09:04;;;;;;;5.18;4.03;;;12.80;99.90;;;;;;6052369;23;20010;-80
2022/09/11 04:11:31;;;;;;;5.47;4.97;;;12.80;99.90;;;;;;6066792;23;20016;-80
2022/09/11 04:14:02;;;;;;;6.05;5.30;;;12.80;99.90;;;;;;6092671;23;20010;-79
2022/09/11 04:16:31;;;;;;;7.00;5.45;;;12.80;99.90;;;;;;6092771;23;20149;-79
2022/09/11 04:18:59;;;;;;;7.32;5.50;;;12.80;99.90;;;;;;6105469;23;19998;-81
2022/09/11 04:21:26;;;;;;;8.68;6.50;;;12.80;99.90;;;;;;6080267;23;20002;-81
2022/09/11 04:23:55;;;;;;;7.85;6.45;;;12.80;99.90;;;;;;6033136;23;20319;-81
2022/09/11 04:26:24;;;;;;;7.25;5.88;;;12.80;99.90;;;;;;6055938;23;20006;-81
2022/09/11 04:29:00;;;;;;;6.97;5.55;;;12.70;99.90;;;;;;6081361;23;20010;-81
2022/09/11 04:31:26;;;;;;;7.40;6.05;;;12.70;99.90;;;;;;6097117;23;20085;-80
2022/09/11 04:33:53;;;;;;;7.55;5.43;;;12.70;99.90;;;;;;6073733;23;20015;-81
2022/09/11 04:36:21;;;;;;;7.63;6.60;;;12.70;99.90;;;;;;6073744;23;20050;-79
2022/09/11 04:38:52;;;;;;;6.53;5.82;;;12.70;99.90;;;;;;6122959;23;20405;-80
2022/09/11 04:41:18;;;;;;;8.73;6.28;;;12.70;99.90;;;;;;6083962;23;20006;-81
2022/09/11 04:43:45;;;;;;;7.00;5.47;;;12.70;99.90;;;;;;6058076;23;20370;-81
2022/09/11 04:46:15;;;;;;;8.60;6.50;;;12.70;99.90;;;;;;6077402;23;20002;-81
2022/09/11 04:48:51;;;;;;;7.13;5.60;;;12.70;99.90;;;;;;6077089;23;20010;-80
2022/09/11 04:51:25;;;;;;;6.78;5.45;;;12.60;99.90;;;;;;6087281;23;20002;-81
2022/09/11 04:53:56;;;;;;;6.38;5.05;;;12.60;99.90;;;;;;6053288;23;20493;-81
2022/09/11 04:56:25;;;;;;;7.68;5.53;;;12.60;99.90;;;;;;6087656;23;20002;-81
2022/09/11 04:58:54;;;;;;;8.52;6.50;;;12.60;99.90;;;;;;6076951;23;20022;-80
2022/09/11 05:01:25;;;;;;;7.30;5.57;;;12.60;99.90;;;;;;6076947;23;20011;-80
2022/09/11 05:03:55;;;;;;;6.63;5.03;;;12.60;99.90;;;;;;6085928;23;20014;-81
2022/09/11 05:06:22;;;;;;;6.65;5.13;;;12.60;99.90;;;;;;6028768;23;20010;-81
2022/09/11 05:08:52;;;;;;;8.18;5.93;;;12.60;99.90;;;;;;6076147;23;20003;-81
2022/09/11 05:11:21;;;;;;;9.38;5.93;;;12.60;99.90;;;;;;6077345;23;20037;-81
2022/09/11 05:13:48;;;;;;;8.27;5.38;;;12.60;99.90;;;;;;6079613;23;20022;-81
2022/09/11 05:16:16;;;;;;;8.88;5.75;;;12.60;99.90;;;;;;6054811;23;20013;-82
2022/09/11 05:18:50;;;;;;;11.10;6.93;;;12.70;99.90;;;;;;6076930;23;19999;-80
2022/09/11 05:21:17;;;;;;;10.30;6.65;;;12.70;99.90;;;;;;6077868;23;20002;-81
2022/09/11 05:23:50;;;;;;;8.10;6.55;;;12.70;99.90;;;;;;6054607;23;20018;-82
2022/09/11 05:26:25;;;;;;;11.93;7.72;;;12.80;99.90;;;;;;6088672;23;20011;-80
2022/09/11 05:28:56;;;;;;;13.50;8.80;;;12.80;99.90;;;;;;6101206;23;20041;-81
2022/09/11 05:31:24;;;;;;;12.63;8.13;;;12.80;99.90;;;;;;6052730;23;20010;-81
2022/09/11 05:33:54;;;;;;;9.98;7.55;;;12.80;99.90;;;;;;6075632;23;20022;-80
2022/09/11 05:36:21;;;;;;;9.88;6.88;;;12.90;99.90;;;;;;6052204;23;20063;-80
2022/09/11 05:38:48;;;;;;;7.35;5.43;;;12.90;99.90;;;;;;6026890;23;20008;-81
2022/09/11 05:41:16;;;;;;;7.30;4.95;;;12.90;99.90;;;;;;6076036;23;20339;-81
2022/09/11 05:43:42;;;;;;;8.18;5.30;;;12.90;99.90;;;;;;6051406;23;20006;-82
2022/09/11 05:46:15;;;;;;;7.38;5.60;;;12.90;99.90;;;;;;6053280;23;20021;-80
2022/09/11 05:48:42;;;;;;;8.68;6.22;;;12.90;99.90;;;;;;6053657;23;19999;-81
2022/09/11 05:51:15;;;;;;;9.57;7.25;;;12.90;99.90;;;;;;6077260;23;20014;-80
2022/09/11 05:53:42;;;;;;;9.98;6.82;;;12.90;99.90;;;;;;6086496;23;20009;-80
2022/09/11 05:56:22;;;;;;;12.45;7.72;;;12.90;99.90;;;;;;6077001;23;20006;-81
2022/09/11 06:14:35;;;;;;;10.88;7.45;;;13.60;99.90;;;;;;6151742;23;20021;-86
2022/09/11 06:26:16;;;;;;;12.88;8.60;;;14.20;99.90;;;;;;6111816;23;20190;-81
2022/09/11 06:28:44;;;;;;;10.60;8.02;;;14.40;99.90;;;;;;6102729;23;20454;-81
2022/09/11 06:31:15;;;;;;;12.65;8.35;;;14.50;99.90;;;;;;6104606;23;20005;-80
2022/09/11 06:33:42;;;;;;;13.65;9.70;;;14.70;99.90;;;;;;6079591;23;20014;-81
2022/09/11 06:36:19;;;;;;;16.13;10.63;;;14.80;99.90;;;;;;6129558;23;20009;-82
2022/09/11 06:38:50;;;;;;;15.57;10.93;;;15.00;99.90;;;;;;6082021;23;20016;-82
2022/09/11 06:41:19;;;;;;;15.65;10.68;;;15.10;99.90;;;;;;6057646;23;20014;-82
2022/09/11 06:43:46;;;;;;;16.05;10.60;;;15.20;99.90;;;;;;6081452;23;20157;-81
2022/09/11 06:46:14;;;;;;;13.13;10.13;;;15.30;99.90;;;;;;6058038;23;20013;-82
2022/09/11 06:48:43;;;;;;;16.02;11.77;;;15.50;99.90;;;;;;6079756;23;20371;-81
2022/09/11 06:51:11;;;;;;;14.30;10.13;;;15.60;99.90;;;;;;6081170;23;20006;-82
2022/09/11 06:53:39;;;;;;;17.60;13.43;;;15.70;99.90;;;;;;6079320;23;20450;-82
2022/09/11 06:56:13;;;;;;;16.58;12.68;;;15.80;99.90;;;;;;6079859;23;20343;-81
2022/09/11 06:58:42;;;;;;;18.05;13.25;;;15.90;99.90;;;;;;6054696;23;20005;-81
2022/09/11 07:01:21;;;;;;;19.40;12.82;;;16.10;99.90;;;;;;6103366;23;20002;-81
2022/09/11 07:03:54;;;;;;;19.25;15.45;;;16.30;99.90;;;;;;6113724;23;20002;-82
2022/09/11 07:06:27;;;;;;;16.65;14.23;;;16.40;99.90;;;;;;6080016;23;20013;-81
2022/09/11 07:08:59;;;;;;;19.23;15.32;;;16.50;99.90;;;;;;6113407;23;20002;-80
2022/09/11 07:11:33;;;;;;;19.15;14.63;;;16.60;99.90;;;;;;6080729;23;20442;-81
2022/09/11 07:14:05;;;;;;;18.80;14.02;;;16.70;99.90;;;;;;6055625;23;20006;-81
2022/09/11 07:16:34;;;;;;;19.00;15.15;;;16.90;99.90;;;;;;6080959;23;20003;-80
2022/09/11 07:19:07;;;;;;;22.33;16.17;;;17.00;99.90;;;;;;6091181;23;19998;-80
2022/09/11 07:21:34;;;;;;;22.02;17.17;;;17.10;99.90;;;;;;6079719;23;20013;-81
2022/09/11 07:24:03;;;;;;;28.38;20.90;;;17.20;99.90;;;;;;6103774;23;20342;-80
2022/09/11 07:26:35;;;;;;;23.35;18.48;;;17.30;99.90;;;;;;6078956;23;20450;-79
2022/09/11 07:29:08;;;;;;;22.63;18.77;;;17.40;99.90;;;;;;6114499;23;20006;-80
2022/09/11 07:31:37;;;;;;;20.63;17.98;;;17.50;99.90;;;;;;6131923;23;20002;-82
2022/09/11 07:34:04;;;;;;;20.75;18.27;;;17.60;99.90;;;;;;6106513;23;20013;-82
2022/09/11 07:36:33;;;;;;;19.15;17.13;;;17.70;99.90;;;;;;6105053;23;20002;-81
2022/09/11 07:39:03;;;;;;;22.40;17.40;;;17.90;99.90;;;;;;6080887;23;20012;-82
2022/09/11 07:41:35;;;;;;;19.40;17.45;;;18.00;99.90;;;;;;6115652;23;20017;-82
2022/09/11 07:44:08;;;;;;;20.90;18.20;;;18.10;99.90;;;;;;6112044;23;20016;-82
2022/09/11 07:46:35;;;;;;;19.15;17.15;;;18.20;99.90;;;;;;6127120;23;20006;-81
2022/09/11 07:49:06;;;;;;;19.45;17.25;;;18.40;99.90;;;;;;6100193;23;20438;-81
2022/09/11 07:51:34;;;;;;;21.60;19.08;;;18.40;99.90;;;;;;6100671;23;20055;-81
2022/09/11 07:54:03;;;;;;;19.48;17.48;;;18.50;99.90;;;;;;6102143;23;20003;-81
2022/09/11 07:56:33;;;;;;;19.15;17.15;;;18.60;99.90;;;;;;6053172;23;20002;-80
2022/09/11 07:59:05;;;;;;;16.25;14.65;;;18.60;99.90;;;;;;6105795;23;20012;-83
2022/09/11 08:01:32;;;;;;;17.17;15.48;;;18.70;99.90;;;;;;6106873;23;20008;-82
2022/09/11 08:04:02;;;;;;;20.58;18.25;;;18.80;99.90;;;;;;6103508;23;20002;-82
2022/09/11 08:06:32;;;;;;;21.33;19.15;;;18.90;99.90;;;;;;6080088;23;20002;-81
2022/09/11 08:09:04;;;;;;;16.00;14.10;;;19.00;99.90;;;;;;6113217;23;19998;-81
2022/09/11 08:11:40;;;;;;;11.93;10.73;;;19.10;99.90;;;;;;6114248;23;20070;-81
2022/09/11 08:14:08;;;;;;;13.32;12.10;;;19.20;99.90;;;;;;6103366;23;20331;-80
2022/09/11 08:16:40;;;;;;;11.98;10.88;;;19.20;99.90;;;;;;6102639;23;20012;-81
2022/09/11 08:19:18;;;;;;;16.60;14.95;;;19.30;99.90;;;;;;6078819;23;20010;-81
2022/09/11 08:21:48;;;;;;;15.40;13.57;;;19.40;99.90;;;;;;6089426;23;20006;-80
2022/09/11 08:24:19;;;;;;;14.95;13.35;;;19.50;99.90;;;;;;6080736;23;20070;-81
2022/09/11 08:26:45;;;;;;;14.30;12.80;;;19.60;99.90;;;;;;6103516;23;20006;-80
2022/09/11 08:29:12;;;;;;;10.82;9.73;;;19.70;99.90;;;;;;6079626;23;20473;-79
2022/09/11 08:31:41;;;;;;;14.00;12.60;;;19.70;99.90;;;;;;6106481;23;20005;-79
2022/09/11 08:34:09;;;;;;;14.70;13.20;;;19.80;99.90;;;;;;6105329;23;20009;-80
2022/09/11 08:36:37;;;;;;;9.80;8.90;;;19.90;99.90;;;;;;6080732;23;20021;-79
2022/09/11 08:39:04;;;;;;;7.97;7.22;;;19.90;99.90;;;;;;6105253;23;19998;-81
2022/09/11 08:41:52;;;;;;;7.65;6.95;;;20.00;99.90;;;;;;6115295;23;20076;-81
2022/09/11 08:44:19;;;;;;;7.88;7.18;;;20.00;99.90;;;;;;6105632;23;20008;-79
2022/09/11 08:46:54;;;;;;;6.22;5.70;;;20.00;99.90;;;;;;6105202;23;20006;-80
2022/09/11 08:50:00;;;;;;;7.47;6.70;;;20.10;99.90;;;;;;6113862;23;20502;-79
2022/09/11 08:52:28;;;;;;;5.97;4.47;;;20.20;99.90;;;;;;6114751;23;20017;-79
2022/09/11 08:54:57;;;;;;;6.10;5.60;;;20.30;99.90;;;;;;6104063;23;20006;-79
2022/09/11 08:57:33;;;;;;;5.70;5.05;;;20.40;99.90;;;;;;6080005;23;20006;-79
2022/09/11 09:00:19;;;;;;;5.60;5.10;;;20.40;99.90;;;;;;6116150;23;19998;-80
2022/09/11 09:03:12;;;;;;;6.13;5.53;;;20.30;99.90;;;;;;6120248;23;19998;-78
2022/09/11 09:06:15;;;;;;;6.75;5.95;;;20.20;99.90;;;;;;6090251;23;20012;-79
2022/09/11 09:09:09;;;;;;;6.80;6.10;;;20.20;99.90;;;;;;6018347;23;20011;-80
2022/09/11 09:11:46;;;;;;;5.78;5.28;;;20.00;99.90;;;;;;6131318;23;20020;-79
2022/09/11 09:14:49;;;;;;;6.30;4.70;;;19.90;99.90;;;;;;6106810;23;20006;-81
2022/09/11 09:17:37;;;;;;;5.68;4.88;;;19.90;99.90;;;;;;6107894;23;20053;-80
2022/09/11 09:20:11;;;;;;;7.53;6.60;;;19.80;99.90;;;;;;6106965;23;20006;-80
2022/09/11 09:22:46;;;;;;;7.32;6.70;;;19.70;99.90;;;;;;6147121;23;20012;-80
2022/09/11 09:25:19;;;;;;;7.43;6.72;;;19.60;99.90;;;;;;6097185;23;20013;-79
2022/09/11 09:28:19;;;;;;;7.75;7.05;;;19.60;99.90;;;;;;6095688;23;20010;-80
2022/09/11 09:30:53;;;;;;;8.38;7.57;;;19.60;99.90;;;;;;6062115;23;20010;-79
2022/09/11 09:33:34;;;;;;;8.70;7.72;;;19.70;99.90;;;;;;6114704;23;20005;-81
2022/09/11 09:36:17;;;;;;;9.70;8.70;;;19.80;99.90;;;;;;6104058;23;20066;-80
2022/09/11 09:38:45;;;;;;;8.95;8.05;;;19.90;99.90;;;;;;6114226;23;20002;-80
2022/09/11 09:41:35;;;;;;;9.38;8.40;;;20.00;99.90;;;;;;6104735;23;20010;-80
2022/09/11 09:44:15;;;;;;;11.05;9.95;;;20.20;99.90;;;;;;6117733;23;20013;-81
2022/09/11 09:46:51;;;;;;;11.95;10.77;;;20.40;99.90;;;;;;6081178;23;20009;-80
2022/09/11 09:49:26;;;;;;;11.35;10.27;;;20.60;99.90;;;;;;6079824;23;20012;-79
2022/09/11 09:51:55;;;;;;;10.73;9.73;;;20.80;99.90;;;;;;6103379;23;20002;-80
2022/09/11 09:54:27;;;;;;;10.25;9.35;;;21.00;99.90;;;;;;6128975;23;20002;-80
2022/09/11 09:57:03;;;;;;;7.68;6.97;;;21.30;99.90;;;;;;6137513;23;20581;-79
2022/09/11 09:59:36;;;;;;;11.32;9.40;;;21.30;99.90;;;;;;6128887;23;20006;-79
2022/09/11 10:02:02;;;;;;;9.35;8.43;;;21.40;99.90;;;;;;6126036;23;20005;-79
2022/09/11 10:04:31;;;;;;;9.23;8.32;;;21.50;99.90;;;;;;6102561;23;20002;-80
2022/09/11 10:07:20;;;;;;;8.35;7.55;;;21.70;99.90;;;;;;6128285;23;20014;-80
2022/09/11 10:09:51;;;;;;;9.15;8.23;;;21.80;99.90;;;;;;6111654;23;19998;-79
2022/09/11 10:12:21;;;;;;;7.93;7.13;;;22.10;99.90;;;;;;6076097;23;20219;-80
2022/09/11 10:15:00;;;;;;;8.90;8.10;;;22.40;99.90;;;;;;6099842;23;20013;-81
2022/09/11 10:17:34;;;;;;;9.73;8.35;;;22.60;99.90;;;;;;6114187;23;20009;-80
2022/09/11 10:20:18;;;;;;;9.30;7.38;;;22.70;99.90;;;;;;6079825;23;20017;-80
2022/09/11 10:22:48;;;;;;;9.80;8.75;;;23.10;99.90;;;;;;6112792;23;20299;-81
2022/09/11 10:25:25;;;;;;;12.48;10.00;;;23.70;99.90;;;;;;6129969;23;20017;-80
2022/09/11 10:28:07;;;;;;;7.15;6.45;;;24.10;99.90;;;;;;6112357;23;20021;-79
2022/09/11 10:30:39;;;;;;;7.63;6.93;;;24.60;99.90;;;;;;6138637;23;20008;-79
2022/09/11 10:33:25;;;;;;;6.70;6.10;;;25.00;99.90;;;;;;6138509;23;20017;-79
2022/09/11 10:35:57;;;;;;;8.50;7.05;;;25.10;99.90;;;;;;6127765;23;20260;-80
2022/09/11 10:38:28;;;;;;;;;;;25.20;99.90;;;;;;6139404;23;20002;-80
2022/09/11 10:41:13;;;;;;;19.85;14.88;;;25.40;99.90;;;;;;6138799;23;19904;-81
2022/09/11 10:44:00;;;;;;;9.55;8.65;;;26.00;99.90;;;;;;6113099;23;20333;-82
2022/09/11 10:46:36;;;;;;;7.50;6.80;;;26.60;99.90;;;;;;6105148;23;20028;-81
2022/09/11 10:49:05;;;;;;;6.00;5.40;;;26.90;99.90;;;;;;6080029;23;20009;-81
2022/09/11 10:51:40;;;;;;;10.85;9.85;;;27.10;99.90;;;;;;6081374;23;20480;-81
2022/09/11 10:54:15;;;;;;;10.60;9.60;;;27.40;99.90;;;;;;6130288;23;20448;-81
2022/09/11 10:56:59;;;;;;;9.27;8.32;;;27.70;99.90;;;;;;6059434;23;20012;-82
2022/09/11 10:59:30;;;;;;;10.20;8.52;;;27.60;99.90;;;;;;6127648;23;20002;-81
2022/09/11 11:01:57;;;;;;;9.97;9.03;;;27.20;99.90;;;;;;6133155;23;20002;-82
2022/09/11 11:04:27;;;;;;;9.38;8.40;;;26.80;99.90;;;;;;6113697;23;20245;-80
2022/09/11 11:07:24;;;;;;;9.15;8.02;;;26.40;99.90;;;;;;6137577;23;20006;-81
2022/09/11 11:09:56;;;;;;;8.10;7.35;;;26.10;99.90;;;;;;6058109;23;20014;-80
2022/09/11 11:12:41;;;;;;;9.15;8.05;;;25.70;99.90;;;;;;6137797;23;20013;-80
2022/09/11 11:15:37;;;;;;;8.57;7.72;;;25.40;99.90;;;;;;6108032;23;20025;-80
2022/09/11 11:18:28;;;;;;;8.25;7.30;;;25.30;99.90;;;;;;6136998;23;20004;-81
2022/09/11 11:21:14;;;;;;;10.60;9.38;;;25.60;99.90;;;;;;6110769;23;20006;-81
2022/09/11 11:24:07;;;;;;;6.72;6.03;;;26.50;99.90;;;;;;6110379;23;19999;-80
2022/09/11 11:27:18;;;;;;;9.07;8.20;;;26.80;99.90;;;;;;6130646;23;20342;-81
2022/09/11 11:29:53;;;;;;;7.53;6.13;;;26.90;99.90;;;;;;6081118;23;20005;-81
2022/09/11 11:32:42;;;;;;;7.45;6.75;;;26.80;99.90;;;;;;6141656;23;20006;-81
2022/09/11 11:35:27;;;;;;;7.82;6.03;;;26.70;99.90;;;;;;6135528;23;20009;-81
2022/09/11 11:38:21;;;;;;;7.35;5.32;;;26.80;99.90;;;;;;6102733;23;20017;-83
2022/09/11 11:41:44;;;;;;;7.30;6.40;;;26.70;99.90;;;;;;6123067;23;20020;-82
2022/09/11 11:44:21;;;;;;;7.10;6.30;;;26.30;99.90;;;;;;6138435;23;20008;-82
2022/09/11 11:47:18;;;;;;;10.20;8.52;;;25.90;99.90;;;;;;6078243;23;20010;-83
2022/09/11 11:49:50;;;;;;;10.25;9.20;;;25.90;99.90;;;;;;6129113;23;20013;-80
2022/09/11 11:52:34;;;;;;;13.52;10.25;;;26.70;99.90;;;;;;6102229;23;20014;-79
2022/09/11 11:55:39;;;;;;;8.57;7.43;;;27.60;99.90;;;;;;6101189;23;20010;-78
2022/09/11 11:59:01;;;;;;;4.97;4.50;;;28.30;99.80;;;;;;6078124;23;20006;-80
2022/09/11 12:01:49;;;;;;;4.88;4.00;;;28.10;98.90;;;;;;6115376;23;19998;-80
2022/09/11 12:04:53;;;;;;;5.10;3.70;;;27.80;99.00;;;;;;6131394;23;20221;-82
2022/09/11 12:07:48;;;;;;;5.03;3.65;;;27.90;98.30;;;;;;6082070;23;20010;-82
2022/09/11 12:10:50;;;;;;;;;;;;;;;;;;;;;
2022/09/11 12:13:41;;;;;;;6.00;4.80;;;27.60;97.40;;;;;;6130551;23;20002;-81
2022/09/11 12:16:27;;;;;;;7.22;6.10;;;27.20;97.80;;;;;;6131255;23;20351;-81
2022/09/11 12:19:18;;;;;;;5.63;4.50;;;26.90;97.20;;;;;;6082783;23;20006;-81
2022/09/11 12:21:54;;;;;;;4.97;4.57;;;26.40;97.80;;;;;;6114397;23;20002;-83
2022/09/11 12:24:43;;;;;;;5.45;3.90;;;26.30;97.90;;;;;;6105576;23;20002;-81
2022/09/11 12:50:21;;;;;;;3.80;3.42;;;28.90;95.00;;;;;;6076984;23;20302;-81
2022/09/11 12:53:07;;;;;;;2.33;2.03;;;29.60;94.20;;;;;;6113626;23;20001;-81
2022/09/11 12:55:42;;;;;;;4.07;3.58;;;30.80;93.20;;;;;;6055875;23;20482;-81
2022/09/11 13:02:36;;;;;;;2.25;1.75;;;32.90;88.40;;;;;;6038253;23;20026;-85
2022/09/11 13:06:51;;;;;;;2.35;1.70;;;33.80;84.60;;;;;;6029389;23;20019;-85
2022/09/11 13:10:34;;;;;;;;;;;;;;;;;;;;;
2022/09/11 13:14:10;;;;;;;3.45;1.92;;;34.10;78.30;;;;;;6053381;23;20007;-84
2022/09/11 13:33:59;;;;;;;2.58;0.93;;;35.30;65.30;;;;;;6095042;23;20026;-85
2022/09/11 13:42:14;;;;;;;;;;;;;;;;;;;;;
2022/09/11 13:45:27;;;;;;;2.30;1.63;;;31.00;72.50;;;;;;6030812;23;20356;-81
2022/09/11 13:47:54;;;;;;;1.88;1.45;;;30.00;74.90;;;;;;6047982;23;20358;-81
2022/09/11 13:50:34;;;;;;;;;;;29.50;75.80;;;;;;6071445;23;20002;-82
2022/09/11 13:53:09;;;;;;;3.28;1.63;;;29.60;76.10;;;;;;6025872;23;19936;-81
2022/09/11 13:55:52;;;;;;;2.17;1.30;;;29.30;76.00;;;;;;6031823;23;20010;-81
2022/09/11 13:58:31;;;;;;;2.10;1.40;;;28.90;77.00;;;;;;6082018;23;20003;-80
2022/09/11 14:01:15;;;;;;;3.17;1.45;;;28.40;78.00;;;;;;6026841;23;20011;-81
2022/09/11 14:04:06;;;;;;;2.88;1.70;;;28.00;78.70;;;;;;6049531;23;20017;-81
2022/09/11 14:06:37;;;;;;;3.40;1.40;;;28.00;79.40;;;;;;6025527;23;20007;-81
2022/09/11 14:09:21;;;;;;;2.50;1.50;;;28.10;79.50;;;;;;6037213;23;20011;-81
2022/09/11 14:11:48;;;;;;;1.88;1.10;;;28.00;79.20;;;;;;6037909;23;20006;-81
2022/09/11 14:14:33;;;;;;;2.92;2.05;;;27.70;80.00;;;;;;6010623;23;20011;-81
2022/09/11 14:17:12;;;;;;;2.22;1.00;;;27.50;80.10;;;;;;6051265;23;20037;-82
2022/09/11 14:19:52;;;;;;;2.80;1.75;;;27.40;80.60;;;;;;6038858;23;20013;-81
2022/09/11 14:22:45;;;;;;;2.22;1.35;;;27.30;79.90;;;;;;6009699;23;20017;-81
2022/09/11 14:26:02;;;;;;;3.42;1.17;;;27.10;80.60;;;;;;6057119;23;20017;-82
2022/09/11 14:28:51;;;;;;;3.40;1.40;;;27.00;81.40;;;;;;6012568;23;20352;-81
2022/09/11 14:31:39;;;;;;;1.63;0.88;;;26.80;81.50;;;;;;6014406;23;20312;-81
2022/09/11 14:34:28;;;;;;;3.05;1.67;;;26.60;82.00;;;;;;6073929;23;20011;-82
2022/09/11 14:37:22;;;;;;;1.90;1.23;;;26.40;82.00;;;;;;6002393;23;20316;-81
2022/09/11 14:40:05;;;;;;;3.35;1.80;;;26.20;81.80;;;;;;6003225;23;20022;-81
2022/09/11 14:42:44;;;;;;;3.08;1.10;;;26.10;82.70;;;;;;6025650;23;20011;-82